sensor_id;sensor_type;location;lat;lon;timestamp;pressure;altitude;pressure_sealevel;temperature;humidity
56272;BME280;42177;48.914;18.160;2023-06-10T00:01:57;982.2;;;16.7;100
56272;BME280;42177;48.914;18.160;2023-06-10T00:06:57;982.2;;;16.9;100
56272;BME280;42177;48.914;18.160;2023-06-10T00:11:57;982.2;;;16.9;100
56272;BME280;42177;48.914;18.160;2023-06-10T00:16:57;982.2;;;17;100
56272;BME280;42177;48.914;18.160;2023-06-10T00:21:57;982.2;;;17;100
56272;BME280;42177;48.914;18.160;2023-06-10T00:26:57;982.1;;;16.9;100
56272;BME280;42177;48.914;18.160;2023-06-10T00:31:57;982.1;;;16.9;100
56272;BME280;42177;48.914;18.160;2023-06-10T00:36:57;982.2;;;16.8;100
56272;BME280;42177;48.914;18.160;2023-06-10T00:41:57;982.2;;;16.8;100
56272;BME280;42177;48.914;18.160;2023-06-10T00:46:57;982.2;;;16.9;100
56272;BME280;42177;48.914;18.160;2023-06-10T00:51:57;982.2;;;16.9;100
56272;BME280;42177;48.914;18.160;2023-06-10T00:56:57;982.2;;;16.8;100
56272;BME280;42177;48.914;18.160;2023-06-10T01:01:57;982.2;;;16.8;100
56272;BME280;42177;48.914;18.160;2023-06-10T01:07:00;982.2;;;16.2;100
56272;BME280;42177;48.914;18.160;2023-06-10T01:11:58;982.2;;;16.2;100
56272;BME280;42177;48.914;18.160;2023-06-10T01:16:57;982.2;;;16;100
56272;BME280;42177;48.914;18.160;2023-06-10T01:21:57;982.2;;;16;100
56272;BME280;42177;48.914;18.160;2023-06-10T01:26:57;982.3;;;16.3;100
56272;BME280;42177;48.914;18.160;2023-06-10T01:31:59;982.3;;;16.3;100
56272;BME280;42177;48.914;18.160;2023-06-10T01:36:57;982.3;;;16.2;100
56272;BME280;42177;48.914;18.160;2023-06-10T01:41:57;982.3;;;16.2;100
56272;BME280;42177;48.914;18.160;2023-06-10T01:46:57;982.4;;;16.8;100
56272;BME280;42177;48.914;18.160;2023-06-10T01:51:57;982.4;;;16.8;100
56272;BME280;42177;48.914;18.160;2023-06-10T01:56:57;982.4;;;16.4;100
56272;BME280;42177;48.914;18.160;2023-06-10T02:01:57;982.4;;;16.4;100
56272;BME280;42177;48.914;18.160;2023-06-10T02:06:57;982.4;;;16.2;100
56272;BME280;42177;48.914;18.160;2023-06-10T02:11:57;982.4;;;16.2;100
56272;BME280;42177;48.914;18.160;2023-06-10T02:16:57;982.3;;;16.2;100
56272;BME280;42177;48.914;18.160;2023-06-10T02:21:57;982.3;;;16.2;100
56272;BME280;42177;48.914;18.160;2023-06-10T02:26:57;982.4;;;16.2;100
56272;BME280;42177;48.914;18.160;2023-06-10T02:31:57;982.4;;;16.2;100
56272;BME280;42177;48.914;18.160;2023-06-10T02:36:57;982.4;;;16.1;100
56272;BME280;42177;48.914;18.160;2023-06-10T02:41:57;982.4;;;16.1;100
56272;BME280;42177;48.914;18.160;2023-06-10T02:46:57;982.4;;;15.9;100
56272;BME280;42177;48.914;18.160;2023-06-10T02:51:57;982.4;;;15.9;100
56272;BME280;42177;48.914;18.160;2023-06-10T02:56:57;982.5;;;16;100
56272;BME280;42177;48.914;18.160;2023-06-10T03:01:57;982.5;;;16;100
56272;BME280;42177;48.914;18.160;2023-06-10T03:06:57;982.5;;;16.1;100
56272;BME280;42177;48.914;18.160;2023-06-10T03:11:57;982.5;;;16.1;100
56272;BME280;42177;48.914;18.160;2023-06-10T03:16:57;982.5;;;15.7;100
56272;BME280;42177;48.914;18.160;2023-06-10T03:21:57;982.5;;;15.7;100
56272;BME280;42177;48.914;18.160;2023-06-10T03:26:57;982.5;;;15.7;100
56272;BME280;42177;48.914;18.160;2023-06-10T03:31:57;982.5;;;15.7;100
56272;BME280;42177;48.914;18.160;2023-06-10T03:36:57;982.6;;;16;100
56272;BME280;42177;48.914;18.160;2023-06-10T03:41:57;982.6;;;16;100
56272;BME280;42177;48.914;18.160;2023-06-10T03:46:57;982.5;;;16.3;100
56272;BME280;42177;48.914;18.160;2023-06-10T03:51:57;982.5;;;16.3;100
56272;BME280;42177;48.914;18.160;2023-06-10T03:56:57;982.5;;;16.4;100
56272;BME280;42177;48.914;18.160;2023-06-10T04:01:57;982.5;;;16.4;100
56272;BME280;42177;48.914;18.160;2023-06-10T04:06:57;982.5;;;16.5;100
56272;BME280;42177;48.914;18.160;2023-06-10T04:11:57;982.5;;;16.5;100
56272;BME280;42177;48.914;18.160;2023-06-10T04:16:57;982.4;;;16.2;100
56272;BME280;42177;48.914;18.160;2023-06-10T04:21:57;982.4;;;16.2;100
56272;BME280;42177;48.914;18.160;2023-06-10T04:26:57;982.5;;;16.8;100
56272;BME280;42177;48.914;18.160;2023-06-10T04:31:57;982.5;;;16.8;100
56272;BME280;42177;48.914;18.160;2023-06-10T04:36:57;982.5;;;16.8;100
56272;BME280;42177;48.914;18.160;2023-06-10T04:41:57;982.5;;;16.8;100
56272;BME280;42177;48.914;18.160;2023-06-10T04:46:57;982.4;;;16.6;100
56272;BME280;42177;48.914;18.160;2023-06-10T04:51:57;982.4;;;16.6;100
56272;BME280;42177;48.914;18.160;2023-06-10T04:56:57;982.4;;;16.6;100
56272;BME280;42177;48.914;18.160;2023-06-10T05:01:57;982.4;;;16.6;100
56272;BME280;42177;48.914;18.160;2023-06-10T05:06:57;982.4;;;16.7;100
56272;BME280;42177;48.914;18.160;2023-06-10T05:11:57;982.4;;;16.7;100
56272;BME280;42177;48.914;18.160;2023-06-10T05:16:57;982.6;;;17.1;100
56272;BME280;42177;48.914;18.160;2023-06-10T05:21:57;982.6;;;17.1;100
56272;BME280;42177;48.914;18.160;2023-06-10T05:26:57;982.5;;;17.5;100
56272;BME280;42177;48.914;18.160;2023-06-10T05:31:57;982.5;;;17.5;100
56272;BME280;42177;48.914;18.160;2023-06-10T05:36:57;982.5;;;17.5;100
56272;BME280;42177;48.914;18.160;2023-06-10T05:41:57;982.5;;;17.5;100
56272;BME280;42177;48.914;18.160;2023-06-10T05:46:57;982.5;;;17.9;100
56272;BME280;42177;48.914;18.160;2023-06-10T05:51:57;982.5;;;17.9;100
56272;BME280;42177;48.914;18.160;2023-06-10T05:56:57;982.5;;;18;100
56272;BME280;42177;48.914;18.160;2023-06-10T06:01:58;982.5;;;18;100
56272;BME280;42177;48.914;18.160;2023-06-10T06:06:57;982.6;;;18.5;100
56272;BME280;42177;48.914;18.160;2023-06-10T06:11:57;982.6;;;18.5;100
56272;BME280;42177;48.914;18.160;2023-06-10T06:16:57;982.4;;;18.9;100
56272;BME280;42177;48.914;18.160;2023-06-10T06:21:57;982.4;;;18.9;100
56272;BME280;42177;48.914;18.160;2023-06-10T06:26:57;982.4;;;19.3;100
56272;BME280;42177;48.914;18.160;2023-06-10T06:31:57;982.4;;;19.3;100
56272;BME280;42177;48.914;18.160;2023-06-10T06:36:57;982.6;;;19.8;100
56272;BME280;42177;48.914;18.160;2023-06-10T06:41:57;982.6;;;19.8;100
56272;BME280;42177;48.914;18.160;2023-06-10T06:46:57;982.6;;;19.6;100
56272;BME280;42177;48.914;18.160;2023-06-10T06:51:57;982.6;;;19.6;100
56272;BME280;42177;48.914;18.160;2023-06-10T06:56:57;982.5;;;20.6;100
56272;BME280;42177;48.914;18.160;2023-06-10T07:01:57;982.5;;;20.6;100
56272;BME280;42177;48.914;18.160;2023-06-10T07:06:57;982.6;;;20.2;100
56272;BME280;42177;48.914;18.160;2023-06-10T07:11:57;982.6;;;20.2;100
56272;BME280;42177;48.914;18.160;2023-06-10T07:16:57;982.7;;;20.4;100
56272;BME280;42177;48.914;18.160;2023-06-10T07:21:57;982.7;;;20.4;100
56272;BME280;42177;48.914;18.160;2023-06-10T07:26:57;982.7;;;20.1;100
56272;BME280;42177;48.914;18.160;2023-06-10T07:31:57;982.7;;;20.1;100
56272;BME280;42177;48.914;18.160;2023-06-10T07:36:57;982.5;;;20.3;100
56272;BME280;42177;48.914;18.160;2023-06-10T07:41:57;982.5;;;20.3;100
56272;BME280;42177;48.914;18.160;2023-06-10T07:46:57;982.6;;;20.3;100
56272;BME280;42177;48.914;18.160;2023-06-10T07:51:57;982.6;;;20.3;100
56272;BME280;42177;48.914;18.160;2023-06-10T07:56:57;982.6;;;20.6;100
56272;BME280;42177;48.914;18.160;2023-06-10T08:01:57;982.6;;;20.6;100
56272;BME280;42177;48.914;18.160;2023-06-10T08:06:57;982.6;;;20.6;100
56272;BME280;42177;48.914;18.160;2023-06-10T08:11:57;982.6;;;20.6;100
56272;BME280;42177;48.914;18.160;2023-06-10T08:16:57;982.6;;;20.8;100
56272;BME280;42177;48.914;18.160;2023-06-10T08:21:57;982.6;;;20.8;100
56272;BME280;42177;48.914;18.160;2023-06-10T08:26:57;982.7;;;21.1;100
56272;BME280;42177;48.914;18.160;2023-06-10T08:31:57;982.7;;;21.1;100
56272;BME280;42177;48.914;18.160;2023-06-10T08:36:57;982.7;;;21.3;100
56272;BME280;42177;48.914;18.160;2023-06-10T08:42:00;982.7;;;21.3;100
56272;BME280;42177;48.914;18.160;2023-06-10T08:46:58;982.8;;;21.6;98.7
56272;BME280;42177;48.914;18.160;2023-06-10T08:51:58;982.8;;;21.6;98.7
56272;BME280;42177;48.914;18.160;2023-06-10T08:56:57;982.7;;;21.8;97.9
56272;BME280;42177;48.914;18.160;2023-06-10T09:01:57;982.7;;;21.8;97.9
56272;BME280;42177;48.914;18.160;2023-06-10T09:06:57;982.7;;;22;94.9
56272;BME280;42177;48.914;18.160;2023-06-10T09:11:57;982.7;;;22;94.9
56272;BME280;42177;48.914;18.160;2023-06-10T09:16:57;982.6;;;21.9;94.6
56272;BME280;42177;48.914;18.160;2023-06-10T09:21:57;982.6;;;21.9;94.6
56272;BME280;42177;48.914;18.160;2023-06-10T09:27:02;982.6;;;22;94
56272;BME280;42177;48.914;18.160;2023-06-10T09:31:57;982.6;;;22;94
56272;BME280;42177;48.914;18.160;2023-06-10T09:36:57;982.6;;;22.5;92.1
56272;BME280;42177;48.914;18.160;2023-06-10T09:41:57;982.6;;;22.5;92.1
56272;BME280;42177;48.914;18.160;2023-06-10T09:46:57;982.5;;;22.8;91.4
56272;BME280;42177;48.914;18.160;2023-06-10T09:51:57;982.5;;;22.8;91.4
56272;BME280;42177;48.914;18.160;2023-06-10T09:56:57;982.5;;;23;86.9
56272;BME280;42177;48.914;18.160;2023-06-10T10:01:57;982.5;;;23;86.9
56272;BME280;42177;48.914;18.160;2023-06-10T10:06:57;982.5;;;22.5;88.6
56272;BME280;42177;48.914;18.160;2023-06-10T10:11:57;982.5;;;22.5;88.6
56272;BME280;42177;48.914;18.160;2023-06-10T10:16:57;982.4;;;22.9;87.8
56272;BME280;42177;48.914;18.160;2023-06-10T10:22:01;982.4;;;22.9;87.8
56272;BME280;42177;48.914;18.160;2023-06-10T10:26:58;982.4;;;23.1;85
56272;BME280;42177;48.914;18.160;2023-06-10T10:31:57;982.4;;;23.1;85
56272;BME280;42177;48.914;18.160;2023-06-10T10:36:57;982.3;;;23.3;84.5
56272;BME280;42177;48.914;18.160;2023-06-10T10:41:57;982.3;;;23.3;84.5
56272;BME280;42177;48.914;18.160;2023-06-10T10:46:57;982.3;;;23.6;82.2
56272;BME280;42177;48.914;18.160;2023-06-10T10:51:57;982.3;;;23.6;82.2
56272;BME280;42177;48.914;18.160;2023-06-10T10:57:13;982.1;;;23.5;84.6
56272;BME280;42177;48.914;18.160;2023-06-10T11:01:57;982.1;;;23.5;84.6
56272;BME280;42177;48.914;18.160;2023-06-10T11:06:58;982;;;23.2;84.4
56272;BME280;42177;48.914;18.160;2023-06-10T11:11:57;982;;;23.2;84.4
56272;BME280;42177;48.914;18.160;2023-06-10T11:16:57;982.1;;;22.9;85.4
56272;BME280;42177;48.914;18.160;2023-06-10T11:21:57;982.1;;;22.9;85.4
56272;BME280;42177;48.914;18.160;2023-06-10T11:27:32;982.1;;;23.4;80.9
56272;BME280;42177;48.914;18.160;2023-06-10T11:31:57;982.1;;;23.4;80.9
56272;BME280;42177;48.914;18.160;2023-06-10T11:36:57;982;;;23;82.3
56272;BME280;42177;48.914;18.160;2023-06-10T11:41:57;982;;;23;82.3
56272;BME280;42177;48.914;18.160;2023-06-10T11:46:57;981.9;;;23.3;80.8
56272;BME280;42177;48.914;18.160;2023-06-10T11:51:57;981.9;;;23.3;80.8
56272;BME280;42177;48.914;18.160;2023-06-10T11:56:57;981.7;;;23.2;82
56272;BME280;42177;48.914;18.160;2023-06-10T12:01:57;981.7;;;23.2;82
56272;BME280;42177;48.914;18.160;2023-06-10T12:06:57;981.7;;;23.3;81.7
56272;BME280;42177;48.914;18.160;2023-06-10T12:11:58;981.7;;;23.3;81.7
56272;BME280;42177;48.914;18.160;2023-06-10T12:16:57;981.8;;;23.6;82.1
56272;BME280;42177;48.914;18.160;2023-06-10T12:22:00;981.8;;;23.6;82.1
56272;BME280;42177;48.914;18.160;2023-06-10T12:26:57;981.7;;;24;82.3
56272;BME280;42177;48.914;18.160;2023-06-10T12:31:58;981.7;;;24;82.3
56272;BME280;42177;48.914;18.160;2023-06-10T12:36:57;981.9;;;22.6;83.2
56272;BME280;42177;48.914;18.160;2023-06-10T12:41:57;981.9;;;22.6;83.2
56272;BME280;42177;48.914;18.160;2023-06-10T12:46:57;982.1;;;22.1;95.4
56272;BME280;42177;48.914;18.160;2023-06-10T12:51:57;982.1;;;22.1;95.4
56272;BME280;42177;48.914;18.160;2023-06-10T12:56:57;982.3;;;21.5;93.4
56272;BME280;42177;48.914;18.160;2023-06-10T13:01:57;982.3;;;21.5;93.4
56272;BME280;42177;48.914;18.160;2023-06-10T13:06:57;982.3;;;21.5;99.1
56272;BME280;42177;48.914;18.160;2023-06-10T13:11:57;982.3;;;21.5;99.1
56272;BME280;42177;48.914;18.160;2023-06-10T13:16:57;982.2;;;21.3;100
56272;BME280;42177;48.914;18.160;2023-06-10T13:21:57;982.2;;;21.3;100
56272;BME280;42177;48.914;18.160;2023-06-10T13:26:57;982.3;;;21.4;100
56272;BME280;42177;48.914;18.160;2023-06-10T13:31:57;982.3;;;21.4;100
56272;BME280;42177;48.914;18.160;2023-06-10T13:36:57;982.3;;;21.1;100
56272;BME280;42177;48.914;18.160;2023-06-10T13:41:57;982.3;;;21.1;100
56272;BME280;42177;48.914;18.160;2023-06-10T13:46:57;982.2;;;21.1;100
56272;BME280;42177;48.914;18.160;2023-06-10T13:51:57;982.2;;;21.1;100
56272;BME280;42177;48.914;18.160;2023-06-10T13:56:57;982.2;;;21;100
56272;BME280;42177;48.914;18.160;2023-06-10T14:01:57;982.2;;;21;100
56272;BME280;42177;48.914;18.160;2023-06-10T14:06:57;982.1;;;21.1;100
56272;BME280;42177;48.914;18.160;2023-06-10T14:11:57;982.1;;;21.1;100
56272;BME280;42177;48.914;18.160;2023-06-10T14:16:57;982.2;;;21.2;100
56272;BME280;42177;48.914;18.160;2023-06-10T14:21:57;982.2;;;21.2;100
56272;BME280;42177;48.914;18.160;2023-06-10T14:26:57;982;;;21.4;100
56272;BME280;42177;48.914;18.160;2023-06-10T14:31:57;982;;;21.4;100
56272;BME280;42177;48.914;18.160;2023-06-10T14:36:57;982;;;21.6;100
56272;BME280;42177;48.914;18.160;2023-06-10T14:41:57;982;;;21.6;100
56272;BME280;42177;48.914;18.160;2023-06-10T14:46:57;981.9;;;21.5;100
56272;BME280;42177;48.914;18.160;2023-06-10T14:51:57;981.9;;;21.5;100
56272;BME280;42177;48.914;18.160;2023-06-10T14:56:58;981.9;;;21.6;100
56272;BME280;42177;48.914;18.160;2023-06-10T15:01:57;981.9;;;21.6;100
56272;BME280;42177;48.914;18.160;2023-06-10T15:06:57;982.1;;;21.7;100
56272;BME280;42177;48.914;18.160;2023-06-10T15:11:57;982.1;;;21.7;100
56272;BME280;42177;48.914;18.160;2023-06-10T15:16:57;982;;;22;100
56272;BME280;42177;48.914;18.160;2023-06-10T15:21:57;982;;;22;100
56272;BME280;42177;48.914;18.160;2023-06-10T15:26:57;981.9;;;21.8;97.5
56272;BME280;42177;48.914;18.160;2023-06-10T15:31:57;981.9;;;21.8;97.5
56272;BME280;42177;48.914;18.160;2023-06-10T15:36:57;982.1;;;21.6;92.4
56272;BME280;42177;48.914;18.160;2023-06-10T15:41:57;982.1;;;21.6;92.4
56272;BME280;42177;48.914;18.160;2023-06-10T15:46:57;982.3;;;21.2;92.9
56272;BME280;42177;48.914;18.160;2023-06-10T15:51:57;982.3;;;21.2;92.9
56272;BME280;42177;48.914;18.160;2023-06-10T15:56:57;982.2;;;20.9;91.9
56272;BME280;42177;48.914;18.160;2023-06-10T16:01:57;982.2;;;20.9;91.9
56272;BME280;42177;48.914;18.160;2023-06-10T16:06:57;982.3;;;20.9;91.4
56272;BME280;42177;48.914;18.160;2023-06-10T16:11:57;982.3;;;20.9;91.4
56272;BME280;42177;48.914;18.160;2023-06-10T16:16:57;982.3;;;20.8;91.4
56272;BME280;42177;48.914;18.160;2023-06-10T16:21:57;982.3;;;20.8;91.4
56272;BME280;42177;48.914;18.160;2023-06-10T16:26:57;982.3;;;20.7;91.9
56272;BME280;42177;48.914;18.160;2023-06-10T16:31:57;982.3;;;20.7;91.9
56272;BME280;42177;48.914;18.160;2023-06-10T16:36:57;982.3;;;20.8;90.9
56272;BME280;42177;48.914;18.160;2023-06-10T16:41:57;982.3;;;20.8;90.9
56272;BME280;42177;48.914;18.160;2023-06-10T16:46:57;982.4;;;20.8;90.4
56272;BME280;42177;48.914;18.160;2023-06-10T16:51:57;982.4;;;20.8;90.4
56272;BME280;42177;48.914;18.160;2023-06-10T16:56:57;982.4;;;20.7;92.1
56272;BME280;42177;48.914;18.160;2023-06-10T17:01:57;982.4;;;20.7;92.1
56272;BME280;42177;48.914;18.160;2023-06-10T17:06:57;982.5;;;20.8;92.5
56272;BME280;42177;48.914;18.160;2023-06-10T17:11:57;982.5;;;20.8;92.5
56272;BME280;42177;48.914;18.160;2023-06-10T17:16:57;982.7;;;20.9;92.4
56272;BME280;42177;48.914;18.160;2023-06-10T17:21:57;982.7;;;20.9;92.4
56272;BME280;42177;48.914;18.160;2023-06-10T17:26:57;982.7;;;20.9;92.5
56272;BME280;42177;48.914;18.160;2023-06-10T17:31:57;982.7;;;20.9;92.5
56272;BME280;42177;48.914;18.160;2023-06-10T17:36:57;982.8;;;20.7;93.6
56272;BME280;42177;48.914;18.160;2023-06-10T17:41:57;982.8;;;20.7;93.6
56272;BME280;42177;48.914;18.160;2023-06-10T17:46:57;982.8;;;20.7;94.7
56272;BME280;42177;48.914;18.160;2023-06-10T17:51:57;982.8;;;20.7;94.7
56272;BME280;42177;48.914;18.160;2023-06-10T17:56:57;982.8;;;20.5;93
56272;BME280;42177;48.914;18.160;2023-06-10T18:01:57;982.8;;;20.5;93
56272;BME280;42177;48.914;18.160;2023-06-10T18:06:57;982.8;;;20.5;92.8
56272;BME280;42177;48.914;18.160;2023-06-10T18:11:57;982.8;;;20.5;92.8
56272;BME280;42177;48.914;18.160;2023-06-10T18:16:57;982.9;;;20.6;96.2
56272;BME280;42177;48.914;18.160;2023-06-10T18:21:57;982.9;;;20.6;96.2
56272;BME280;42177;48.914;18.160;2023-06-10T18:26:57;982.9;;;20.5;98.1
56272;BME280;42177;48.914;18.160;2023-06-10T18:31:57;982.9;;;20.5;98.1
56272;BME280;42177;48.914;18.160;2023-06-10T18:36:58;983;;;20.4;94.5
56272;BME280;42177;48.914;18.160;2023-06-10T18:41:57;983;;;20.4;94.5
56272;BME280;42177;48.914;18.160;2023-06-10T18:46:57;983.1;;;20.4;91
56272;BME280;42177;48.914;18.160;2023-06-10T18:51:57;983.1;;;20.4;91
56272;BME280;42177;48.914;18.160;2023-06-10T18:56:58;983.2;;;20.5;89.4
56272;BME280;42177;48.914;18.160;2023-06-10T19:01:57;983.2;;;20.5;89.4
56272;BME280;42177;48.914;18.160;2023-06-10T19:06:57;983.3;;;20.6;90.2
56272;BME280;42177;48.914;18.160;2023-06-10T19:11:57;983.3;;;20.6;90.2
56272;BME280;42177;48.914;18.160;2023-06-10T19:16:57;983.3;;;20.5;88.2
56272;BME280;42177;48.914;18.160;2023-06-10T19:21:57;983.3;;;20.5;88.2
56272;BME280;42177;48.914;18.160;2023-06-10T19:26:57;983.4;;;20.3;88.4
56272;BME280;42177;48.914;18.160;2023-06-10T19:31:57;983.4;;;20.3;88.4
56272;BME280;42177;48.914;18.160;2023-06-10T19:36:57;983.5;;;20.4;88.6
56272;BME280;42177;48.914;18.160;2023-06-10T19:41:57;983.5;;;20.4;88.6
56272;BME280;42177;48.914;18.160;2023-06-10T19:46:57;983.5;;;20.2;89.3
56272;BME280;42177;48.914;18.160;2023-06-10T19:51:57;983.5;;;20.2;89.3
56272;BME280;42177;48.914;18.160;2023-06-10T19:56:57;983.4;;;20.3;89
56272;BME280;42177;48.914;18.160;2023-06-10T20:01:57;983.4;;;20.3;89
56272;BME280;42177;48.914;18.160;2023-06-10T20:06:57;983.4;;;20.3;89
56272;BME280;42177;48.914;18.160;2023-06-10T20:11:57;983.4;;;20.3;89
56272;BME280;42177;48.914;18.160;2023-06-10T20:16:57;983.3;;;20.1;89.5
56272;BME280;42177;48.914;18.160;2023-06-10T20:21:57;983.3;;;20.1;89.5
56272;BME280;42177;48.914;18.160;2023-06-10T20:26:57;983.3;;;20.1;89.4
56272;BME280;42177;48.914;18.160;2023-06-10T20:31:57;983.3;;;20.1;89.4
56272;BME280;42177;48.914;18.160;2023-06-10T20:36:57;983.3;;;20;90
56272;BME280;42177;48.914;18.160;2023-06-10T20:41:57;983.3;;;20;90
56272;BME280;42177;48.914;18.160;2023-06-10T20:46:57;983.2;;;19.9;89.5
56272;BME280;42177;48.914;18.160;2023-06-10T20:51:57;983.2;;;19.9;89.5
56272;BME280;42177;48.914;18.160;2023-06-10T20:56:57;983.3;;;19.9;89.3
56272;BME280;42177;48.914;18.160;2023-06-10T21:01:57;983.3;;;19.9;89.3
56272;BME280;42177;48.914;18.160;2023-06-10T21:06:57;983.4;;;19.8;89.3
56272;BME280;42177;48.914;18.160;2023-06-10T21:11:57;983.4;;;19.8;89.3
56272;BME280;42177;48.914;18.160;2023-06-10T21:16:57;983.5;;;19.7;89.7
56272;BME280;42177;48.914;18.160;2023-06-10T21:21:57;983.5;;;19.7;89.7
56272;BME280;42177;48.914;18.160;2023-06-10T21:26:57;983.5;;;19.7;89.2
56272;BME280;42177;48.914;18.160;2023-06-10T21:31:57;983.5;;;19.7;89.2
56272;BME280;42177;48.914;18.160;2023-06-10T21:36:57;983.5;;;19.7;88.6
56272;BME280;42177;48.914;18.160;2023-06-10T21:41:57;983.5;;;19.7;88.6
56272;BME280;42177;48.914;18.160;2023-06-10T21:46:57;983.6;;;19.8;88.7
56272;BME280;42177;48.914;18.160;2023-06-10T21:51:57;983.6;;;19.8;88.7
56272;BME280;42177;48.914;18.160;2023-06-10T21:56:57;983.5;;;19.5;89.7
56272;BME280;42177;48.914;18.160;2023-06-10T22:01:58;983.5;;;19.5;89.7
56272;BME280;42177;48.914;18.160;2023-06-10T22:06:57;983.5;;;19.3;92.6
56272;BME280;42177;48.914;18.160;2023-06-10T22:11:57;983.5;;;19.3;92.6
56272;BME280;42177;48.914;18.160;2023-06-10T22:16:57;983.5;;;19.1;94.8
56272;BME280;42177;48.914;18.160;2023-06-10T22:21:57;983.5;;;19.1;94.8
56272;BME280;42177;48.914;18.160;2023-06-10T22:26:57;983.5;;;19.1;94.4
56272;BME280;42177;48.914;18.160;2023-06-10T22:31:57;983.5;;;19.1;94.4
56272;BME280;42177;48.914;18.160;2023-06-10T22:36:57;983.4;;;19;94
56272;BME280;42177;48.914;18.160;2023-06-10T22:41:57;983.4;;;19;94
56272;BME280;42177;48.914;18.160;2023-06-10T22:46:57;983.5;;;18.8;95.1
56272;BME280;42177;48.914;18.160;2023-06-10T22:51:57;983.5;;;18.8;95.1
56272;BME280;42177;48.914;18.160;2023-06-10T22:56:57;983.3;;;18.7;94.7
56272;BME280;42177;48.914;18.160;2023-06-10T23:01:57;983.3;;;18.7;94.7
56272;BME280;42177;48.914;18.160;2023-06-10T23:06:57;983.3;;;18.9;93.2
56272;BME280;42177;48.914;18.160;2023-06-10T23:11:57;983.3;;;18.9;93.2
56272;BME280;42177;48.914;18.160;2023-06-10T23:16:57;983.3;;;18.8;93.4
56272;BME280;42177;48.914;18.160;2023-06-10T23:21:57;983.3;;;18.8;93.4
56272;BME280;42177;48.914;18.160;2023-06-10T23:26:59;983.2;;;18.8;94.2
56272;BME280;42177;48.914;18.160;2023-06-10T23:31:57;983.2;;;18.8;94.2
56272;BME280;42177;48.914;18.160;2023-06-10T23:36:57;983.2;;;18.5;95.5
56272;BME280;42177;48.914;18.160;2023-06-10T23:41:57;983.2;;;18.5;95.5
56272;BME280;42177;48.914;18.160;2023-06-10T23:46:57;983.3;;;18.7;94.3
56272;BME280;42177;48.914;18.160;2023-06-10T23:51:57;983.3;;;18.7;94.3
56272;BME280;42177;48.914;18.160;2023-06-10T23:56:57;983.2;;;18.4;96.8
